createdAt,value
2018-12-14T00:00:00.842Z,-0.82
2018-12-14T00:02:33.053Z,-0.82
2018-12-14T00:05:02.329Z,-0.77
2018-12-14T00:07:31.832Z,-0.79
2018-12-14T00:10:01.073Z,-0.83
2018-12-14T00:12:30.317Z,-0.82
2018-12-14T00:14:59.565Z,-0.80
2018-12-14T00:17:28.774Z,-0.78
2018-12-14T00:19:58.134Z,-0.78
2018-12-14T00:22:27.501Z,-0.77
2018-12-14T00:24:56.765Z,-0.83
2018-12-14T00:27:26.449Z,-0.84
2018-12-14T00:29:55.881Z,-0.82
2018-12-14T00:32:25.214Z,-0.80
2018-12-14T00:34:54.469Z,-0.81
2018-12-14T00:37:23.690Z,-0.85
2018-12-14T00:39:52.886Z,-0.85
2018-12-14T00:42:22.251Z,-0.85
2018-12-14T00:44:51.461Z,-0.84
2018-12-14T00:47:20.673Z,-0.85
2018-12-14T00:49:50.064Z,-0.85
2018-12-14T00:52:19.365Z,-0.85
2018-12-14T00:54:48.627Z,-0.85
2018-12-14T00:57:17.877Z,-0.84
2018-12-14T00:59:47.067Z,-0.90
2018-12-14T01:02:21.705Z,-0.88
2018-12-14T01:04:51.295Z,-0.88
2018-12-14T01:07:20.525Z,-0.89
2018-12-14T01:09:49.901Z,-0.94
2018-12-14T01:12:19.198Z,-0.89
2018-12-14T01:14:48.418Z,-0.93
2018-12-14T01:17:17.625Z,-0.96
2018-12-14T01:19:46.899Z,-0.95
2018-12-14T01:22:16.226Z,-0.99
2018-12-14T01:24:45.421Z,-0.99
2018-12-14T01:27:14.689Z,-1.02
2018-12-14T01:29:43.901Z,-0.99
2018-12-14T01:32:13.189Z,-1.04
2018-12-14T01:34:42.503Z,-1.02
2018-12-14T01:37:11.725Z,-0.99
2018-12-14T01:39:41.163Z,-1.02
2018-12-14T01:42:10.445Z,-1.05
2018-12-14T01:44:39.910Z,-1.02
2018-12-14T01:47:09.219Z,-1.04
2018-12-14T01:49:38.450Z,-1.04
2018-12-14T01:52:07.642Z,-0.99
2018-12-14T01:54:36.857Z,-1.05
2018-12-14T01:57:06.049Z,-1.04
2018-12-14T01:59:35.281Z,-1.06
2018-12-14T02:02:04.686Z,-1.02
2018-12-14T02:04:34.881Z,-1.00
2018-12-14T02:07:04.501Z,-1.05
2018-12-14T02:09:33.761Z,-1.05
2018-12-14T02:12:03.193Z,-1.03
2018-12-14T02:14:32.508Z,-1.03
2018-12-14T02:17:01.901Z,-1.06
2018-12-14T02:19:31.166Z,-1.03
2018-12-14T02:22:00.425Z,-1.04
2018-12-14T02:24:29.679Z,-1.04
2018-12-14T02:26:59.474Z,-1.03
2018-12-14T02:29:28.889Z,-1.05
2018-12-14T02:31:58.214Z,-1.04
2018-12-14T02:34:27.478Z,-0.99
2018-12-14T02:36:56.882Z,-1.00
2018-12-14T02:39:26.151Z,-1.03
2018-12-14T02:41:55.394Z,-1.08
2018-12-14T02:44:24.714Z,-1.10
2018-12-14T02:46:54.035Z,-1.12
2018-12-14T02:49:23.270Z,-1.15
2018-12-14T02:51:52.697Z,-1.15
2018-12-14T02:54:21.931Z,-1.11
2018-12-14T02:56:51.294Z,-1.20
2018-12-14T02:59:20.754Z,-1.16
2018-12-14T03:01:50.119Z,-1.15
2018-12-14T03:04:19.359Z,-1.12
2018-12-14T03:06:48.579Z,-1.12
2018-12-14T03:09:17.826Z,-1.22
2018-12-14T03:11:47.071Z,-1.17
2018-12-14T03:14:16.617Z,-1.16
2018-12-14T03:16:45.961Z,-1.15
2018-12-14T03:19:15.217Z,-1.14
2018-12-14T03:21:44.584Z,-1.13
2018-12-14T03:24:13.838Z,-1.23
2018-12-14T03:26:43.051Z,-1.18
2018-12-14T03:29:12.417Z,-1.16
2018-12-14T03:31:41.780Z,-1.19
2018-12-14T03:34:11.103Z,-1.14
2018-12-14T03:36:40.354Z,-1.17
2018-12-14T03:39:09.592Z,-1.17
2018-12-14T03:41:38.939Z,-1.20
2018-12-14T03:44:08.379Z,-1.17
2018-12-14T03:46:37.806Z,-1.12
2018-12-14T03:49:07.142Z,-1.14
2018-12-14T03:51:36.378Z,-1.15
2018-12-14T03:54:05.848Z,-1.13
2018-12-14T03:56:35.290Z,-1.15
2018-12-14T03:59:04.625Z,-1.10
2018-12-14T04:01:34.131Z,-1.16
2018-12-14T04:04:03.390Z,-1.14
2018-12-14T04:06:32.729Z,-1.14
2018-12-14T04:09:02.211Z,-1.18
2018-12-14T04:11:32.444Z,-1.14
2018-12-14T04:14:01.812Z,-1.13
2018-12-14T04:16:31.199Z,-1.07
2018-12-14T04:19:00.586Z,-1.14
2018-12-14T04:21:29.929Z,-1.12
2018-12-14T04:23:59.216Z,-1.08
2018-12-14T04:26:28.545Z,-1.09
2018-12-14T04:28:57.795Z,-1.15
2018-12-14T04:31:27.065Z,-1.12
2018-12-14T04:33:56.395Z,-1.09
2018-12-14T04:36:25.719Z,-1.12
2018-12-14T04:38:55.060Z,-1.07
2018-12-14T04:41:24.344Z,-1.08
2018-12-14T04:43:53.661Z,-1.12
2018-12-14T04:46:22.934Z,-1.08
2018-12-14T04:48:52.220Z,-1.11
2018-12-14T04:51:21.567Z,-1.14
2018-12-14T04:53:50.923Z,-1.13
2018-12-14T04:56:26.742Z,-1.11
2018-12-14T04:58:56.051Z,-1.12
2018-12-14T05:01:25.346Z,-1.12
2018-12-14T05:03:54.603Z,-1.10
2018-12-14T05:06:23.980Z,-1.12
2018-12-14T05:08:53.406Z,-1.12
2018-12-14T05:11:22.674Z,-1.15
2018-12-14T05:13:51.960Z,-1.13
2018-12-14T05:16:21.297Z,-1.14
2018-12-14T05:18:50.614Z,-1.15
2018-12-14T05:21:19.935Z,-1.19
2018-12-14T05:23:49.202Z,-1.18
2018-12-14T05:26:18.554Z,-1.21
2018-12-14T05:28:47.909Z,-1.24
2018-12-14T05:31:17.323Z,-1.26
2018-12-14T05:33:46.701Z,-1.22
2018-12-14T05:36:16.097Z,-1.21
2018-12-14T05:38:45.353Z,-1.19
2018-12-14T05:41:14.632Z,-1.22
2018-12-14T05:43:43.940Z,-1.19
2018-12-14T05:46:13.293Z,-1.23
2018-12-14T05:48:42.614Z,-1.23
2018-12-14T05:51:11.993Z,-1.24
2018-12-14T05:53:41.262Z,-1.24
2018-12-14T05:56:10.761Z,-1.23
2018-12-14T05:58:40.038Z,-1.21
2018-12-14T06:01:09.421Z,-1.22
2018-12-14T06:03:38.697Z,-1.27
2018-12-14T06:06:08.142Z,-1.24
2018-12-14T06:08:37.414Z,-1.27
2018-12-14T06:11:06.778Z,-1.30
2018-12-14T06:13:36.035Z,-1.31
2018-12-14T06:16:05.392Z,-1.31
2018-12-14T06:18:34.666Z,-1.31
2018-12-14T06:21:04.131Z,-1.34
2018-12-14T06:23:33.398Z,-1.36
2018-12-14T06:26:02.890Z,-1.38
2018-12-14T06:28:32.198Z,-1.36
2018-12-14T06:31:01.478Z,-1.49
2018-12-14T06:33:30.806Z,-1.42
2018-12-14T06:36:00.064Z,-1.44
2018-12-14T06:38:29.338Z,-1.39
2018-12-14T06:40:58.720Z,-1.38
2018-12-14T06:43:28.079Z,-1.40
2018-12-14T06:45:57.463Z,-1.41
2018-12-14T06:48:26.700Z,-1.42
2018-12-14T06:53:54.419Z,-1.35
2018-12-14T06:56:23.716Z,-1.36
2018-12-14T06:58:52.975Z,-1.36
2018-12-14T07:01:22.236Z,-1.37
2018-12-14T07:03:51.510Z,-1.38
2018-12-14T07:06:20.802Z,-1.42
2018-12-14T07:08:50.080Z,-1.37
2018-12-14T07:11:20.233Z,-1.40
2018-12-14T07:13:49.578Z,-1.47
2018-12-14T07:16:19.385Z,-1.44
2018-12-14T07:18:48.902Z,-1.45
2018-12-14T07:21:18.246Z,-1.43
2018-12-14T07:23:47.474Z,-1.43
2018-12-14T07:26:16.731Z,-1.43
2018-12-14T07:28:46.110Z,-1.45
2018-12-14T07:31:15.450Z,-1.45
2018-12-14T07:33:44.774Z,-1.41
2018-12-14T07:36:14.341Z,-1.39
2018-12-14T07:38:48.102Z,-1.50
2018-12-14T07:41:14.989Z,-1.44
2018-12-14T07:43:44.234Z,-1.46
2018-12-14T07:46:13.849Z,-1.46
2018-12-14T07:48:43.078Z,-1.42
2018-12-14T07:51:12.438Z,-1.40
2018-12-14T07:53:41.711Z,-1.37
2018-12-14T07:56:10.975Z,-1.36
2018-12-14T07:58:41.157Z,-1.32
2018-12-14T08:01:10.538Z,-1.35
2018-12-14T08:03:39.799Z,-1.29
2018-12-14T08:06:09.057Z,-1.30
2018-12-14T08:08:38.293Z,-1.35
2018-12-14T08:11:07.625Z,-1.37
2018-12-14T08:13:36.866Z,-1.28
2018-12-14T08:16:06.310Z,-1.25
2018-12-14T08:18:35.748Z,-1.28
2018-12-14T08:21:05.013Z,-1.25
2018-12-14T08:23:34.517Z,-1.22
2018-12-14T08:26:03.763Z,-1.24
2018-12-14T08:28:33.109Z,-1.26
2018-12-14T08:31:02.507Z,-1.22
2018-12-14T08:33:31.762Z,-1.24
2018-12-14T08:36:01.261Z,-1.23
2018-12-14T08:38:30.706Z,-1.25
2018-12-14T08:41:00.090Z,-1.28
2018-12-14T08:43:29.350Z,-1.24
2018-12-14T08:45:58.604Z,-1.27
2018-12-14T08:48:27.971Z,-1.28
2018-12-14T08:50:57.475Z,-1.29
2018-12-14T08:53:27.041Z,-1.24
2018-12-14T08:55:56.527Z,-1.24
2018-12-14T08:58:25.988Z,-1.28
2018-12-14T09:00:55.255Z,-1.23
2018-12-14T09:03:24.605Z,-1.19
2018-12-14T09:05:53.870Z,-1.17
2018-12-14T09:08:23.302Z,-1.11
2018-12-14T09:10:52.570Z,-1.19
2018-12-14T09:13:24.151Z,-1.13
2018-12-14T09:18:56.521Z,-1.09
2018-12-14T09:21:25.765Z,-1.07
2018-12-14T09:23:55.140Z,-1.12
2018-12-14T09:26:24.668Z,-1.21
2018-12-14T09:28:54.191Z,-1.13
2018-12-14T09:31:23.805Z,-1.13
2018-12-14T09:33:53.091Z,-1.14
2018-12-14T09:36:22.348Z,-1.12
2018-12-14T09:38:52.281Z,-1.06
2018-12-14T09:41:21.604Z,-1.05
2018-12-14T09:43:54.286Z,-1.05
2018-12-14T09:46:22.066Z,-1.09
2018-12-14T09:48:51.306Z,-1.03
2018-12-14T09:51:20.563Z,-1.03
2018-12-14T09:53:49.840Z,-1.05
2018-12-14T09:56:19.105Z,-1.01
2018-12-14T09:58:48.438Z,-1.02
2018-12-14T10:01:17.775Z,-1.00
2018-12-14T10:03:47.198Z,-1.04
2018-12-14T10:06:16.715Z,-1.05
2018-12-14T10:08:45.941Z,-1.03
2018-12-14T10:11:15.649Z,-1.02
2018-12-14T10:13:44.985Z,-1.01
2018-12-14T10:16:14.581Z,-1.04
2018-12-14T10:18:44.315Z,-0.96
2018-12-14T10:21:14.078Z,-0.95
2018-12-14T10:23:44.718Z,-0.95
2018-12-14T10:26:14.120Z,-0.97
2018-12-14T10:28:43.358Z,-1.01
2018-12-14T10:31:12.659Z,-1.06
2018-12-14T10:33:41.926Z,-1.10
2018-12-14T10:36:11.199Z,-1.11
2018-12-14T10:38:40.444Z,-1.12
2018-12-14T10:41:09.826Z,-1.10
2018-12-14T10:43:39.052Z,-1.09
2018-12-14T10:46:08.423Z,-1.05
2018-12-14T10:48:37.766Z,-0.97
2018-12-14T10:51:07.123Z,-0.95
2018-12-14T10:53:36.582Z,-0.94
2018-12-14T10:56:06.038Z,-0.85
2018-12-14T10:58:35.326Z,-0.83
2018-12-14T11:02:13.750Z,-0.84
2018-12-14T11:07:41.245Z,-0.79
2018-12-14T11:10:11.153Z,-0.73
2018-12-14T11:12:40.770Z,-0.70
2018-12-14T11:15:10.202Z,-0.84
2018-12-14T11:20:44.243Z,-0.87
2018-12-14T11:23:16.614Z,-0.87
2018-12-14T11:25:46.941Z,-0.86
2018-12-14T11:28:16.282Z,-0.85
2018-12-14T11:30:45.689Z,-0.95
2018-12-14T11:33:14.593Z,-0.95
2018-12-14T11:35:43.941Z,-0.96
2018-12-14T11:38:13.449Z,-0.97
2018-12-14T11:40:42.797Z,-0.95
2018-12-14T11:43:12.272Z,-0.95
2018-12-14T11:45:41.750Z,-0.98
2018-12-14T11:48:11.175Z,-1.03
2018-12-14T11:50:40.578Z,-0.89
2018-12-14T11:56:13.086Z,-0.85
2018-12-14T11:58:42.552Z,-0.85
2018-12-14T12:01:12.094Z,-0.83
2018-12-14T12:03:42.867Z,-0.90
2018-12-14T12:06:12.704Z,-0.87
2018-12-14T12:08:42.070Z,-0.85
2018-12-14T12:11:11.436Z,-0.87
2018-12-14T12:13:40.877Z,-0.84
2018-12-14T12:16:10.228Z,-0.88
2018-12-14T12:18:39.577Z,-0.95
2018-12-14T12:21:08.970Z,-1.00
2018-12-14T12:23:38.297Z,-0.99
2018-12-14T12:26:07.659Z,-0.95
2018-12-14T12:28:37.089Z,-0.94
2018-12-14T12:31:06.606Z,-0.92
2018-12-14T12:33:35.970Z,-0.97
2018-12-14T12:36:05.459Z,-0.98
2018-12-14T12:38:38.160Z,-0.94
2018-12-14T12:41:06.338Z,-0.97
2018-12-14T12:43:35.952Z,-0.94
2018-12-14T12:46:05.463Z,-0.99
2018-12-14T12:48:35.459Z,-1.01
2018-12-14T12:51:04.944Z,-0.96
2018-12-14T12:53:34.701Z,-0.93
2018-12-14T12:56:04.510Z,-0.92
2018-12-14T12:58:34.158Z,-0.90
2018-12-14T13:01:03.746Z,-0.91
2018-12-14T13:03:33.292Z,-0.90
2018-12-14T13:06:03.252Z,-0.92
2018-12-14T13:08:32.595Z,-0.93
2018-12-14T13:11:01.997Z,-0.92
2018-12-14T13:13:31.460Z,-0.86
2018-12-14T13:16:00.899Z,-0.88
2018-12-14T13:18:30.444Z,-0.89
2018-12-14T13:20:59.809Z,-0.93
2018-12-14T13:23:29.243Z,-0.92
2018-12-14T13:25:58.729Z,-0.96
2018-12-14T13:28:28.204Z,-0.95
2018-12-14T13:30:57.650Z,-0.99
2018-12-14T13:36:31.578Z,-0.98
2018-12-14T13:39:01.015Z,-1.01
2018-12-14T13:41:30.614Z,-0.99
2018-12-14T13:44:00.080Z,-0.94
2018-12-14T13:46:29.592Z,-0.99
2018-12-14T13:49:02.757Z,-0.89
2018-12-14T13:51:30.531Z,-0.85
2018-12-14T13:54:00.026Z,-0.88
2018-12-14T13:56:29.553Z,-0.87
2018-12-14T13:58:59.022Z,-0.90
2018-12-14T14:01:28.475Z,-1.00
2018-12-14T14:03:58.218Z,-0.98
2018-12-14T14:06:27.590Z,-0.98
2018-12-14T14:08:57.138Z,-1.01
2018-12-14T14:11:26.477Z,-0.98
2018-12-14T14:13:56.551Z,-1.00
2018-12-14T14:16:25.992Z,-0.95
2018-12-14T14:18:55.423Z,-0.97
2018-12-14T14:21:24.845Z,-0.95
2018-12-14T14:23:54.304Z,-0.97
2018-12-14T14:26:23.758Z,-0.99
2018-12-14T14:28:53.195Z,-1.03
2018-12-14T14:31:22.645Z,-1.01
2018-12-14T14:33:52.135Z,-1.02
2018-12-14T14:36:21.495Z,-1.05
2018-12-14T14:38:50.861Z,-1.02
2018-12-14T14:41:20.232Z,-1.00
2018-12-14T14:43:49.803Z,-0.97
2018-12-14T14:46:19.563Z,-0.98
2018-12-14T14:48:48.931Z,-1.01
2018-12-14T14:51:18.487Z,-1.03
2018-12-14T14:53:47.917Z,-1.03
2018-12-14T14:56:17.284Z,-1.01
2018-12-14T14:58:46.909Z,-0.96
2018-12-14T15:01:16.402Z,-1.01
2018-12-14T15:03:45.936Z,-1.00
2018-12-14T15:06:15.381Z,-1.01
2018-12-14T15:08:44.861Z,-0.96
2018-12-14T15:11:14.190Z,-0.96
2018-12-14T15:13:43.681Z,-0.97
2018-12-14T15:16:13.307Z,-0.99
2018-12-14T15:18:42.670Z,-0.97
2018-12-14T15:24:11.593Z,-1.01
2018-12-14T15:26:40.997Z,-1.00
2018-12-14T15:29:10.461Z,-0.99
2018-12-14T15:31:41.181Z,-0.96
2018-12-14T15:34:14.313Z,-0.98
2018-12-14T15:36:42.129Z,-0.98
2018-12-14T15:39:11.470Z,-1.00
2018-12-14T15:41:41.342Z,-1.00
2018-12-14T15:44:10.724Z,-1.04
2018-12-14T15:46:40.126Z,-1.01
2018-12-14T15:49:09.492Z,-1.01
2018-12-14T15:51:38.796Z,-0.99
2018-12-14T15:54:08.379Z,-1.05
2018-12-14T15:56:37.781Z,-1.05
2018-12-14T15:59:07.252Z,-0.98
2018-12-14T16:01:37.338Z,-1.01
2018-12-14T16:04:06.723Z,-0.97
2018-12-14T16:06:36.149Z,-1.01
2018-12-14T16:09:08.018Z,-1.04
2018-12-14T16:11:37.526Z,-1.03
2018-12-14T16:14:07.375Z,-1.03
2018-12-14T16:16:36.808Z,-1.01
2018-12-14T16:19:06.213Z,-0.96
2018-12-14T16:21:35.884Z,-0.98
2018-12-14T16:24:05.794Z,-1.00
2018-12-14T16:26:35.288Z,-1.00
2018-12-14T16:29:04.666Z,-1.01
2018-12-14T16:31:34.069Z,-1.04
2018-12-14T16:34:03.579Z,-0.98
2018-12-14T16:36:33.006Z,-1.00
2018-12-14T16:39:02.380Z,-0.98
2018-12-14T16:41:31.816Z,-0.98
2018-12-14T16:44:01.164Z,-0.96
2018-12-14T16:46:30.496Z,-0.94
2018-12-14T16:48:59.997Z,-0.94
2018-12-14T16:51:29.374Z,-0.97
2018-12-14T16:54:03.354Z,-1.07
2018-12-14T16:56:33.005Z,-1.03
2018-12-14T16:59:02.659Z,-1.01
2018-12-14T17:01:32.117Z,-0.99
2018-12-14T17:04:01.654Z,-0.99
2018-12-14T17:06:32.510Z,-0.97
2018-12-14T17:09:01.974Z,-1.04
2018-12-14T17:11:31.410Z,-1.00
2018-12-14T17:14:00.854Z,-1.01
2018-12-14T17:16:30.397Z,-0.99
2018-12-14T17:18:59.942Z,-1.02
2018-12-14T17:21:29.540Z,-0.99
2018-12-14T17:23:58.991Z,-0.95
2018-12-14T17:26:28.429Z,-1.00
2018-12-14T17:28:57.894Z,-1.01
2018-12-14T17:31:27.374Z,-0.98
2018-12-14T17:33:56.718Z,-1.00
2018-12-14T17:36:26.326Z,-1.02
2018-12-14T17:38:55.765Z,-1.02
2018-12-14T17:41:25.120Z,-0.99
2018-12-14T17:43:54.472Z,-0.99
2018-12-14T17:46:24.097Z,-0.99
2018-12-14T17:48:53.430Z,-0.95
2018-12-14T17:51:23.212Z,-0.99
2018-12-14T17:53:52.640Z,-1.00
2018-12-14T17:56:22.074Z,-1.00
2018-12-14T17:58:51.568Z,-1.01
2018-12-14T18:01:20.982Z,-1.00
2018-12-14T18:03:50.367Z,-1.00
2018-12-14T18:06:19.879Z,-1.02
2018-12-14T18:08:49.277Z,-1.05
2018-12-14T18:11:18.585Z,-1.01
2018-12-14T18:13:47.889Z,-1.04
2018-12-14T18:16:17.394Z,-1.08
2018-12-14T18:18:46.835Z,-1.09
2018-12-14T18:21:16.291Z,-1.04
2018-12-14T18:23:45.764Z,-1.09
2018-12-14T18:26:15.294Z,-1.13
2018-12-14T18:28:44.641Z,-1.13
2018-12-14T18:31:14.134Z,-1.14
2018-12-14T18:33:43.517Z,-1.18
2018-12-14T18:36:12.910Z,-1.16
2018-12-14T18:38:42.221Z,-1.16
2018-12-14T18:41:11.630Z,-1.18
2018-12-14T18:43:40.915Z,-1.09
2018-12-14T18:49:08.698Z,-1.16
2018-12-14T18:51:38.091Z,-1.16
2018-12-14T18:54:07.400Z,-1.13
2018-12-14T18:56:36.812Z,-1.10
2018-12-14T18:59:06.394Z,-1.04
2018-12-14T19:01:35.767Z,-1.04
2018-12-14T19:04:05.289Z,-0.99
2018-12-14T19:06:34.782Z,-1.05
2018-12-14T19:09:07.286Z,-1.04
2018-12-14T19:11:36.657Z,-1.02
2018-12-14T19:14:06.061Z,-0.99
2018-12-14T19:19:41.260Z,-1.01
2018-12-14T19:22:10.859Z,-1.00
2018-12-14T19:24:40.358Z,-0.99
2018-12-14T19:27:09.841Z,-0.95
2018-12-14T19:29:39.224Z,-0.94
2018-12-14T19:32:08.745Z,-0.95
2018-12-14T19:34:38.102Z,-0.95
2018-12-14T19:37:07.477Z,-0.90
2018-12-14T19:39:36.994Z,-0.89
2018-12-14T19:42:06.375Z,-0.92
2018-12-14T19:44:35.998Z,-0.88
2018-12-14T19:47:06.692Z,-0.91
2018-12-14T19:49:36.185Z,-0.87
2018-12-14T19:52:05.805Z,-0.82
2018-12-14T19:54:35.532Z,-0.80
2018-12-14T19:57:05.142Z,-0.74
2018-12-14T19:59:34.606Z,-0.72
2018-12-14T20:02:04.295Z,-0.60
2018-12-14T20:04:33.749Z,-0.65
2018-12-14T20:07:03.211Z,-0.68
2018-12-14T20:09:32.653Z,-0.67
2018-12-14T20:12:01.959Z,-0.66
2018-12-14T20:14:31.416Z,-0.76
2018-12-14T20:17:00.890Z,-0.85
2018-12-14T20:19:30.247Z,-0.94
2018-12-14T20:21:59.794Z,-0.97
2018-12-14T20:24:29.178Z,-1.01
2018-12-14T20:26:58.598Z,-0.99
2018-12-14T20:29:27.882Z,-0.99
2018-12-14T20:31:57.325Z,-1.00
2018-12-14T20:34:26.151Z,-1.00
2018-12-14T20:36:55.567Z,-1.08
2018-12-14T20:39:25.084Z,-1.08
2018-12-14T20:41:54.026Z,-1.09
2018-12-14T20:44:23.528Z,-1.05
2018-12-14T20:46:52.989Z,-1.02
2018-12-14T20:49:22.318Z,-0.98
2018-12-14T20:51:51.680Z,-0.97
2018-12-14T20:54:21.213Z,-1.02
2018-12-14T20:56:51.674Z,-1.00
2018-12-14T20:59:21.397Z,-0.97
2018-12-14T21:01:50.961Z,-0.96
2018-12-14T21:04:20.369Z,-0.93
2018-12-14T21:06:49.850Z,-0.91
2018-12-14T21:09:19.325Z,-0.89
2018-12-14T21:11:48.694Z,-0.87
2018-12-14T21:14:18.289Z,-0.84
2018-12-14T21:16:47.827Z,-0.80
2018-12-14T21:19:17.221Z,-0.90
2018-12-14T21:21:46.775Z,-0.90
2018-12-14T21:24:16.372Z,-0.93
2018-12-14T21:26:45.738Z,-0.95
2018-12-14T21:29:16.160Z,-0.95
2018-12-14T21:31:45.832Z,-0.99
2018-12-14T21:34:15.334Z,-1.03
2018-12-14T21:36:44.654Z,-1.06
2018-12-14T21:39:14.066Z,-1.10
2018-12-14T21:41:43.409Z,-1.09
2018-12-14T21:44:12.859Z,-1.09
2018-12-14T21:46:42.321Z,-1.06
2018-12-14T21:49:11.791Z,-1.01
2018-12-14T21:51:41.339Z,-1.06
2018-12-14T21:54:10.708Z,-1.02
2018-12-14T21:56:40.230Z,-1.07
2018-12-14T21:59:09.607Z,-1.05
2018-12-14T22:01:39.113Z,-1.03
2018-12-14T22:04:08.495Z,-1.00
2018-12-14T22:06:38.285Z,-1.05
2018-12-14T22:09:09.942Z,-1.10
2018-12-14T22:11:39.392Z,-1.11
2018-12-14T22:14:08.707Z,-1.13
2018-12-14T22:16:39.351Z,-1.11
2018-12-14T22:19:08.957Z,-1.14
2018-12-14T22:21:38.291Z,-1.16
2018-12-14T22:24:07.657Z,-1.13
2018-12-14T22:26:36.997Z,-1.12
2018-12-14T22:29:06.492Z,-1.11
2018-12-14T22:31:35.845Z,-1.08
2018-12-14T22:34:05.377Z,-1.04
2018-12-14T22:36:34.860Z,-0.98
2018-12-14T22:39:07.218Z,-1.07
2018-12-14T22:41:37.859Z,-1.05
2018-12-14T22:44:07.810Z,-1.14
2018-12-14T22:46:37.235Z,-1.19
2018-12-14T22:49:07.673Z,-1.17
2018-12-14T22:51:37.004Z,-1.13
2018-12-14T22:54:06.334Z,-1.11
2018-12-14T22:56:35.678Z,-1.16
2018-12-14T22:59:05.068Z,-1.24
2018-12-14T23:01:34.526Z,-1.23
2018-12-14T23:04:04.021Z,-1.22
2018-12-14T23:06:33.333Z,-1.22
2018-12-14T23:09:02.917Z,-1.23
2018-12-14T23:11:32.275Z,-1.19
2018-12-14T23:14:01.672Z,-1.20
2018-12-14T23:16:31.084Z,-1.16
2018-12-14T23:19:00.728Z,-1.16
2018-12-14T23:21:30.239Z,-1.16
2018-12-14T23:23:59.577Z,-1.21
2018-12-14T23:26:28.917Z,-1.21
2018-12-14T23:28:58.431Z,-1.24
2018-12-14T23:31:27.751Z,-1.27
2018-12-14T23:33:57.098Z,-1.12
2018-12-14T23:36:26.524Z,-1.13
2018-12-14T23:38:55.866Z,-1.08
2018-12-14T23:41:25.227Z,-1.17
2018-12-14T23:43:54.575Z,-1.22
2018-12-14T23:46:23.890Z,-1.23
2018-12-14T23:48:53.346Z,-1.13
2018-12-14T23:51:22.753Z,-1.19
2018-12-14T23:53:52.184Z,-1.25
2018-12-14T23:56:21.648Z,-1.26
2018-12-14T23:58:51.010Z,-1.26
